Time;durP1;ratioP1;P1;durP2;ratioP2;P2;SDS_P1;SDS_P2;PMS_P1;PMS_P2;Temp;Humidity;BMP_temperature;BMP_pressure;BME280_temperature;BME280_humidity;BME280_pressure;Samples;Min_cycle;Max_cycle;Signal;HPM_P1;HPM_P2
2023/12/31 00:02:20;;;;;;;13.15;7.55;;;4.80;99.90;;;;;;5082545;28;20201;-69
2023/12/31 00:04:46;;;;;;;11.13;7.13;;;;;;;;;;5082524;28;20142;-69
2023/12/31 00:07:12;;;;;;;11.07;6.13;;;4.80;99.90;;;;;;5082582;28;20083;-68
2023/12/31 00:09:39;;;;;;;13.20;7.50;;;4.80;99.90;;;;;;5082393;28;20032;-68
2023/12/31 00:12:04;;;;;;;11.65;5.82;;;4.90;99.90;;;;;;5076984;28;20029;-67
2023/12/31 00:14:30;;;;;;;10.55;6.32;;;4.80;99.90;;;;;;5071051;28;20044;-69
2023/12/31 00:16:56;;;;;;;13.95;8.30;;;;;;;;;;5061895;28;20389;-71
2023/12/31 00:19:22;;;;;;;11.27;7.85;;;;;;;;;;5062059;28;20025;-70
2023/12/31 00:21:48;;;;;;;13.40;7.90;;;4.60;99.90;;;;;;5061894;28;20059;-69
2023/12/31 00:24:14;;;;;;;13.05;8.20;;;;;;;;;;5061992;28;20029;-70
2023/12/31 00:26:40;;;;;;;12.30;7.80;;;4.60;99.90;;;;;;5062180;28;20040;-70
2023/12/31 00:29:05;;;;;;;14.13;6.70;;;4.40;99.90;;;;;;5061613;28;20033;-70
2023/12/31 00:31:31;;;;;;;10.27;5.63;;;;;;;;;;5060574;28;20341;-70
2023/12/31 00:33:57;;;;;;;15.95;7.65;;;4.30;99.90;;;;;;5061662;28;20039;-70
2023/12/31 00:36:26;;;;;;;10.35;5.90;;;4.30;99.90;;;;;;5060226;28;20099;-70
2023/12/31 00:38:53;;;;;;;12.10;6.80;;;4.30;99.90;;;;;;5060461;28;20084;-70
2023/12/31 00:41:19;;;;;;;9.15;5.40;;;;;;;;;;5043504;28;20358;-70
2023/12/31 00:43:45;;;;;;;9.73;5.75;;;;;;;;;;5061511;28;20028;-70
2023/12/31 00:46:14;;;;;;;11.23;6.82;;;4.20;99.90;;;;;;5046850;28;20283;-70
2023/12/31 00:48:40;;;;;;;11.73;6.05;;;;;;;;;;5063668;28;20071;-71
2023/12/31 00:51:06;;;;;;;8.75;5.05;;;;;;;;;;5081613;28;20024;-70
2023/12/31 00:53:32;;;;;;;8.15;5.13;;;;;;;;;;5098961;28;20087;-70
2023/12/31 00:55:58;;;;;;;8.65;5.53;;;4.10;99.90;;;;;;5101896;28;20027;-69
2023/12/31 00:58:24;;;;;;;9.50;5.88;;;4.20;99.90;;;;;;5101795;28;20081;-70
2023/12/31 01:00:50;;;;;;;9.73;5.82;;;;;;;;;;5101512;28;20040;-70
2023/12/31 01:03:16;;;;;;;11.75;7.03;;;4.30;99.90;;;;;;5083318;28;20069;-69
2023/12/31 01:05:42;;;;;;;14.90;8.32;;;;;;;;;;5101730;28;20073;-69
2023/12/31 01:08:08;;;;;;;16.23;8.75;;;3.90;99.90;;;;;;5101703;28;20035;-68
2023/12/31 01:10:34;;;;;;;15.52;10.07;;;3.90;99.90;;;;;;5101378;28;20047;-68
2023/12/31 01:12:59;;;;;;;18.15;9.30;;;3.90;99.90;;;;;;5101624;28;20031;-70
2023/12/31 01:15:25;;;;;;;18.30;9.57;;;;;;;;;;5101310;28;20032;-69
2023/12/31 01:17:51;;;;;;;18.63;10.15;;;;;;;;;;5101312;28;20023;-70
2023/12/31 01:20:17;;;;;;;14.13;9.52;;;;;;;;;;5101336;28;20054;-70
2023/12/31 01:22:43;;;;;;;16.60;9.10;;;3.40;99.90;;;;;;5074451;28;20321;-70
2023/12/31 01:25:09;;;;;;;17.52;10.02;;;3.30;99.90;;;;;;5081185;28;20091;-69
2023/12/31 01:27:34;;;;;;;14.18;8.90;;;3.30;99.90;;;;;;5080769;28;20043;-70
2023/12/31 01:30:01;;;;;;;17.00;9.35;;;;;;;;;;5062969;28;20047;-70
2023/12/31 01:32:27;;;;;;;14.60;8.02;;;3.40;99.90;;;;;;5080844;28;20074;-70
2023/12/31 01:34:58;;;;;;;15.27;8.65;;;3.50;99.90;;;;;;5080790;28;20100;-69
2023/12/31 01:37:24;;;;;;;15.05;9.07;;;;;;;;;;5080860;28;20082;-70
2023/12/31 01:39:50;;;;;;;14.88;8.68;;;3.50;99.90;;;;;;5083697;28;20025;-70
2023/12/31 01:42:15;;;;;;;11.80;7.40;;;3.60;99.90;;;;;;5080734;28;20036;-70
2023/12/31 01:44:41;;;;;;;17.08;9.43;;;;;;;;;;5081077;28;20028;-71
2023/12/31 01:47:07;;;;;;;15.70;8.80;;;;;;;;;;5081981;28;20024;-70
2023/12/31 01:49:33;;;;;;;17.55;9.80;;;;;;;;;;5082359;28;20056;-70
2023/12/31 01:52:01;;;;;;;15.50;8.80;;;4.20;99.90;;;;;;5080423;28;20016;-71
2023/12/31 01:54:27;;;;;;;17.67;9.65;;;4.50;99.90;;;;;;5080011;28;20028;-69
2023/12/31 01:56:53;;;;;;;18.92;9.70;;;;;;;;;;5082937;28;20025;-70
2023/12/31 01:59:20;;;;;;;18.00;10.00;;;4.90;99.90;;;;;;5062802;28;20037;-70
2023/12/31 02:01:48;;;;;;;16.05;10.65;;;4.90;99.90;;;;;;5081078;28;20036;-70
2023/12/31 02:04:15;;;;;;;31.00;18.27;;;4.90;99.90;;;;;;5080644;28;20043;-66
2023/12/31 02:06:42;;;;;;;22.00;13.07;;;5.00;99.90;;;;;;5081050;28;20244;-68
2023/12/31 02:09:09;;;;;;;17.98;10.88;;;4.90;99.90;;;;;;5080653;28;20077;-67
2023/12/31 02:11:36;;;;;;;18.85;11.80;;;4.60;99.90;;;;;;5080536;28;20016;-67
2023/12/31 02:14:03;;;;;;;20.50;12.48;;;;;;;;;;5080703;28;20024;-68
2023/12/31 02:16:29;;;;;;;23.60;11.63;;;;;;;;;;5080303;28;20096;-72
2023/12/31 02:18:55;;;;;;;20.42;10.52;;;;;;;;;;5080332;28;20029;-69
2023/12/31 02:21:20;;;;;;;18.40;10.75;;;4.40;99.90;;;;;;5080225;28;20329;-67
2023/12/31 02:23:48;;;;;;;16.55;9.85;;;4.50;99.90;;;;;;5080312;28;20082;-68
2023/12/31 02:26:14;;;;;;;18.25;9.77;;;;;;;;;;5080405;28;20032;-67
2023/12/31 02:28:40;;;;;;;19.05;11.52;;;4.30;99.90;;;;;;5079065;28;20024;-67
2023/12/31 02:31:06;;;;;;;17.30;10.75;;;4.60;99.90;;;;;;5070955;28;20028;-66
2023/12/31 02:33:32;;;;;;;17.88;9.77;;;4.60;99.90;;;;;;5080735;28;20015;-69
2023/12/31 02:35:58;;;;;;;21.00;11.07;;;4.60;99.90;;;;;;5063129;28;20029;-67
2023/12/31 02:38:24;;;;;;;15.63;9.45;;;;;;;;;;5061225;28;20029;-67
2023/12/31 02:40:50;;;;;;;17.20;9.93;;;4.90;99.90;;;;;;5078279;28;20197;-67
2023/12/31 02:43:16;;;;;;;16.90;10.10;;;5.00;99.90;;;;;;5080123;28;20024;-68
2023/12/31 02:45:42;;;;;;;18.63;10.68;;;;;;;;;;5080049;28;20024;-69
2023/12/31 02:48:08;;;;;;;17.35;9.30;;;;;;;;;;5080125;28;20217;-67
2023/12/31 02:50:33;;;;;;;15.13;9.32;;;4.90;99.90;;;;;;5082169;28;20036;-67
2023/12/31 02:53:00;;;;;;;17.63;9.95;;;4.80;99.90;;;;;;5080060;28;20668;-67
2023/12/31 02:55:25;;;;;;;16.10;9.13;;;4.80;99.90;;;;;;5079957;28;20324;-67
2023/12/31 02:57:51;;;;;;;15.43;8.85;;;4.80;99.90;;;;;;5080999;28;20066;-68
2023/12/31 03:00:17;;;;;;;17.08;8.90;;;4.20;99.90;;;;;;5083824;28;20036;-70
2023/12/31 03:02:43;;;;;;;17.67;9.02;;;4.60;99.90;;;;;;5083856;28;20528;-68
2023/12/31 03:05:09;;;;;;;17.52;9.35;;;;;;;;;;5083568;28;20028;-69
2023/12/31 03:07:35;;;;;;;16.90;9.32;;;;;;;;;;5083561;28;20042;-69
2023/12/31 03:10:01;;;;;;;19.98;10.10;;;4.30;99.90;;;;;;5083773;28;20028;-69
2023/12/31 03:12:27;;;;;;;18.98;9.60;;;;;;;;;;5083452;28;20024;-70
2023/12/31 03:14:55;;;;;;;16.20;8.95;;;4.10;99.90;;;;;;5066001;28;20027;-68
2023/12/31 03:17:21;;;;;;;18.88;9.85;;;;;;;;;;5083422;28;20142;-69
2023/12/31 03:19:47;;;;;;;18.60;9.32;;;;;;;;;;5083334;28;20019;-69
2023/12/31 03:22:13;;;;;;;14.80;8.98;;;4.00;99.90;;;;;;5083463;28;20021;-69
2023/12/31 03:24:38;;;;;;;17.40;9.32;;;3.90;99.90;;;;;;5083790;28;20074;-70
2023/12/31 03:27:04;;;;;;;16.08;8.68;;;;;;;;;;5084362;28;20328;-70
2023/12/31 03:29:30;;;;;;;15.52;8.60;;;;;;;;;;5066442;28;20094;-70
2023/12/31 03:31:56;;;;;;;16.13;8.80;;;;;;;;;;5084139;28;20028;-70
2023/12/31 03:34:22;;;;;;;15.45;8.25;;;;;;;;;;5083727;28;20017;-70
2023/12/31 03:36:48;;;;;;;16.98;8.20;;;;;;;;;;5082997;28;20119;-69
2023/12/31 03:39:14;;;;;;;14.13;8.55;;;;;;;;;;5083100;28;20269;-69
2023/12/31 03:41:41;;;;;;;14.73;7.80;;;3.90;99.90;;;;;;5083070;28;20039;-70
2023/12/31 03:44:07;;;;;;;15.88;8.20;;;;;;;;;;5083152;28;20036;-70
2023/12/31 03:46:33;;;;;;;14.73;8.07;;;4.00;99.90;;;;;;5083175;28;20028;-70
2023/12/31 03:48:59;;;;;;;15.90;8.35;;;;;;;;;;5082946;28;20067;-69
2023/12/31 03:51:25;;;;;;;19.38;9.15;;;;;;;;;;5083173;28;20059;-69
2023/12/31 03:53:51;;;;;;;19.63;9.88;;;;;;;;;;5083059;28;20036;-69
2023/12/31 03:56:17;;;;;;;17.42;9.63;;;3.90;99.90;;;;;;5065067;28;20039;-69
2023/12/31 03:58:43;;;;;;;17.17;9.95;;;4.10;99.90;;;;;;5082818;28;20020;-69
2023/12/31 04:01:08;;;;;;;20.40;10.95;;;3.80;99.90;;;;;;5082536;28;20103;-68
2023/12/31 04:03:34;;;;;;;17.02;10.25;;;;;;;;;;5082755;28;20025;-69
2023/12/31 04:06:00;;;;;;;19.23;10.25;;;3.90;99.90;;;;;;5082907;28;20028;-69
2023/12/31 04:08:26;;;;;;;16.92;10.65;;;3.70;99.90;;;;;;5082673;28;20062;-69
2023/12/31 04:10:52;;;;;;;15.98;10.05;;;;;;;;;;5082083;28;20039;-68
2023/12/31 04:13:18;;;;;;;18.42;10.73;;;3.70;99.90;;;;;;5082544;28;20020;-69
2023/12/31 04:15:44;;;;;;;18.73;11.35;;;3.80;99.90;;;;;;5082493;28;20087;-70
2023/12/31 04:18:10;;;;;;;18.45;10.93;;;3.70;99.90;;;;;;5082419;28;20020;-70
2023/12/31 04:20:36;;;;;;;19.42;11.75;;;;;;;;;;5082489;28;20108;-69
2023/12/31 04:23:03;;;;;;;24.65;14.48;;;;;;;;;;5082211;28;20378;-70
2023/12/31 04:25:28;;;;;;;20.48;13.07;;;3.80;99.90;;;;;;5082530;28;20020;-70
2023/12/31 04:27:54;;;;;;;24.85;14.13;;;3.40;99.90;;;;;;5082508;28;20028;-72
2023/12/31 04:30:20;;;;;;;23.15;13.77;;;3.50;99.90;;;;;;5082172;28;20100;-73
2023/12/31 04:32:46;;;;;;;23.77;13.98;;;;;;;;;;5082119;28;20532;-71
2023/12/31 04:35:11;;;;;;;25.63;13.23;;;4.10;99.90;;;;;;5082091;28;20040;-71
2023/12/31 04:37:37;;;;;;;26.38;13.98;;;;;;;;;;5082056;28;20344;-71
2023/12/31 04:40:05;;;;;;;30.02;13.73;;;3.50;99.90;;;;;;5082080;28;20035;-71
2023/12/31 04:42:31;;;;;;;26.83;13.75;;;;;;;;;;5081840;28;20028;-72
2023/12/31 04:44:59;;;;;;;25.00;15.15;;;3.80;99.90;;;;;;5063963;28;20086;-73
2023/12/31 04:47:25;;;;;;;27.95;14.98;;;3.50;99.90;;;;;;5081902;28;20020;-72
2023/12/31 04:49:51;;;;;;;23.48;13.93;;;;;;;;;;5063749;28;20048;-73
2023/12/31 04:52:17;;;;;;;22.40;13.70;;;;;;;;;;5083687;28;20336;-72
2023/12/31 04:54:43;;;;;;;24.95;15.35;;;;;;;;;;5081690;28;20079;-71
2023/12/31 04:57:09;;;;;;;23.08;13.82;;;;;;;;;;5081566;28;20066;-72
2023/12/31 04:59:35;;;;;;;21.95;13.30;;;;;;;;;;5081442;28;20016;-72
2023/12/31 05:02:01;;;;;;;23.23;13.75;;;;;;;;;;5081450;28;20036;-73
2023/12/31 05:04:27;;;;;;;22.45;13.00;;;;;;;;;;5081561;28;20020;-72
2023/12/31 05:06:53;;;;;;;23.15;13.15;;;3.70;99.90;;;;;;5063679;28;20078;-72
2023/12/31 05:09:19;;;;;;;24.70;13.15;;;;;;;;;;5081418;28;20329;-72
2023/12/31 05:11:45;;;;;;;23.15;13.98;;;4.00;99.90;;;;;;5095527;28;20030;-72
2023/12/31 05:14:11;;;;;;;26.55;13.77;;;;;;;;;;5101868;28;20240;-73
2023/12/31 05:16:37;;;;;;;23.80;13.05;;;;;;;;;;5101509;28;20054;-72
2023/12/31 05:19:03;;;;;;;26.58;15.02;;;;;;;;;;5101538;28;20346;-72
2023/12/31 05:21:29;;;;;;;26.17;14.32;;;;;;;;;;5100509;28;20042;-72
2023/12/31 05:23:55;;;;;;;27.02;14.27;;;;;;;;;;5101310;28;20350;-72
2023/12/31 05:26:21;;;;;;;26.58;14.45;;;;;;;;;;5101331;28;20019;-72
2023/12/31 05:28:47;;;;;;;25.08;13.35;;;;;;;;;;5101297;28;20034;-72
2023/12/31 05:31:13;;;;;;;23.15;15.25;;;;;;;;;;5066457;28;20035;-72
2023/12/31 05:33:41;;;;;;;22.88;14.15;;;3.90;99.90;;;;;;5101334;28;20055;-72
2023/12/31 05:36:06;;;;;;;25.70;15.52;;;3.70;99.90;;;;;;5101353;28;20027;-70
2023/12/31 05:38:33;;;;;;;27.45;16.08;;;;;;;;;;5101299;28;20134;-69
2023/12/31 05:40:59;;;;;;;27.08;16.50;;;;;;;;;;5100883;28;20063;-70
2023/12/31 05:43:25;;;;;;;29.15;16.75;;;3.50;99.90;;;;;;5101376;28;20012;-69
2023/12/31 05:45:51;;;;;;;26.60;15.98;;;;;;;;;;5100967;28;20024;-69
2023/12/31 05:48:17;;;;;;;28.17;15.70;;;;;;;;;;5098752;28;20042;-68
2023/12/31 05:50:43;;;;;;;29.55;15.80;;;3.40;99.90;;;;;;5062798;28;20085;-70
2023/12/31 05:53:09;;;;;;;36.50;17.08;;;;;;;;;;5080869;28;20052;-70
2023/12/31 05:55:35;;;;;;;30.38;17.42;;;;;;;;;;5080930;28;20035;-69
2023/12/31 05:58:00;;;;;;;30.60;16.00;;;3.40;99.90;;;;;;5080866;28;20020;-69
2023/12/31 06:00:27;;;;;;;28.88;17.02;;;;;;;;;;5080528;28;20107;-69
2023/12/31 06:02:52;;;;;;;33.25;16.92;;;3.30;99.90;;;;;;5080602;28;20060;-70
2023/12/31 06:05:18;;;;;;;34.65;18.30;;;;;;;;;;5080577;28;20036;-67
2023/12/31 06:07:44;;;;;;;34.20;18.15;;;;;;;;;;5080438;28;20344;-68
2023/12/31 06:10:10;;;;;;;33.55;18.85;;;3.40;99.90;;;;;;5061987;28;20073;-67
2023/12/31 06:12:36;;;;;;;33.75;17.65;;;3.20;99.90;;;;;;5080152;28;20201;-68
2023/12/31 06:15:07;;;;;;;33.45;19.42;;;3.20;99.90;;;;;;5080899;28;20017;-68
2023/12/31 06:17:34;;;;;;;38.03;19.05;;;;;;;;;;5080798;28;20041;-68
2023/12/31 06:20:00;;;;;;;34.80;19.73;;;3.10;99.90;;;;;;5080365;28;20262;-68
2023/12/31 06:22:26;;;;;;;32.22;18.58;;;2.90;99.90;;;;;;5080392;28;20032;-68
2023/12/31 06:24:51;;;;;;;34.80;19.90;;;3.20;99.90;;;;;;5080438;28;20062;-68
2023/12/31 06:27:17;;;;;;;36.20;20.65;;;2.90;99.90;;;;;;5080497;28;20024;-68
2023/12/31 06:29:43;;;;;;;35.08;19.67;;;3.50;99.90;;;;;;5080426;28;20025;-69
2023/12/31 06:32:09;;;;;;;45.03;23.30;;;;;;;;;;5080340;28;20030;-70
2023/12/31 06:34:34;;;;;;;38.55;20.30;;;3.20;99.90;;;;;;5084388;28;20024;-70
2023/12/31 06:37:00;;;;;;;41.42;23.05;;;;;;;;;;5070300;28;20207;-70
2023/12/31 06:39:26;;;;;;;39.45;22.55;;;3.00;99.90;;;;;;5053095;28;20317;-69
2023/12/31 06:41:52;;;;;;;38.15;21.15;;;3.20;99.90;;;;;;5044227;28;20037;-67
2023/12/31 06:44:18;;;;;;;45.85;23.35;;;3.20;99.90;;;;;;5044208;28;20021;-67
2023/12/31 06:46:44;;;;;;;54.72;26.85;;;;;;;;;;5044391;28;20049;-67
2023/12/31 06:49:10;;;;;;;52.70;27.17;;;;;;;;;;5044149;28;20084;-70
2023/12/31 06:51:36;;;;;;;47.88;25.25;;;;;;;;;;5050392;28;20333;-71
2023/12/31 06:54:02;;;;;;;48.53;25.77;;;3.40;99.90;;;;;;5064950;28;20079;-71
2023/12/31 06:56:29;;;;;;;45.85;26.70;;;;;;;;;;5064161;28;20013;-71
2023/12/31 06:58:55;;;;;;;48.03;26.65;;;;;;;;;;5053113;28;20066;-71
2023/12/31 07:01:21;;;;;;;52.15;27.23;;;;;;;;;;5064106;28;20028;-71
2023/12/31 07:03:47;;;;;;;47.05;25.40;;;;;;;;;;5063880;28;20344;-72
2023/12/31 07:06:12;;;;;;;53.78;27.88;;;3.50;99.90;;;;;;5064202;28;20024;-71
2023/12/31 07:08:38;;;;;;;35.70;19.05;;;;;;;;;;5063851;28;20013;-71
2023/12/31 07:11:04;;;;;;;49.92;26.13;;;3.80;99.90;;;;;;5063882;28;20091;-71
2023/12/31 07:13:30;;;;;;;35.53;18.90;;;3.90;99.90;;;;;;5058332;28;20025;-71
2023/12/31 07:16:00;;;;;;;20.40;10.77;;;4.20;99.90;;;;;;5054252;28;20055;-70
2023/12/31 07:18:26;;;;;;;49.05;25.55;;;4.50;99.90;;;;;;5054514;28;20313;-72
2023/12/31 07:20:54;;;;;;;44.75;23.55;;;;;;;;;;5043481;28;20045;-71
2023/12/31 07:23:20;;;;;;;45.10;26.25;;;;;;;;;;5048600;28;20093;-72
2023/12/31 07:25:47;;;;;;;47.60;24.85;;;;;;;;;;5051264;28;20074;-72
2023/12/31 07:28:12;;;;;;;39.00;22.58;;;4.80;99.90;;;;;;5046650;28;20035;-72
2023/12/31 07:30:39;;;;;;;49.78;27.70;;;4.60;99.90;;;;;;5043112;28;20017;-70
2023/12/31 07:33:05;;;;;;;49.08;29.13;;;5.00;99.90;;;;;;5042461;28;20017;-70
2023/12/31 07:35:34;;;;;;;48.13;26.73;;;;;;;;;;5043653;28;20021;-70
2023/12/31 07:38:01;;;;;;;36.60;20.63;;;5.00;99.90;;;;;;5042508;28;20052;-71
2023/12/31 07:40:27;;;;;;;40.80;25.08;;;;;;;;;;5042470;28;20403;-70
2023/12/31 07:42:53;;;;;;;37.03;22.45;;;;;;;;;;5043373;28;20052;-70
2023/12/31 07:45:19;;;;;;;51.03;29.05;;;;;;;;;;5042344;28;20131;-70
2023/12/31 07:47:46;;;;;;;49.03;29.70;;;;;;;;;;5043247;28;20021;-70
2023/12/31 07:50:12;;;;;;;44.85;24.90;;;;;;;;;;5059522;28;20083;-70
2023/12/31 07:52:38;;;;;;;33.50;19.55;;;;;;;;;;5064418;28;20033;-69
2023/12/31 07:55:05;;;;;;;26.20;15.32;;;6.00;99.90;;;;;;5063654;28;20017;-70
2023/12/31 07:57:31;;;;;;;37.40;23.00;;;6.10;99.90;;;;;;5062905;28;20051;-70
2023/12/31 07:59:56;;;;;;;30.02;16.30;;;5.90;99.90;;;;;;5045157;28;20029;-70
2023/12/31 08:02:22;;;;;;;13.75;8.55;;;;;;;;;;5062328;28;20037;-71
2023/12/31 08:04:48;;;;;;;15.52;7.90;;;6.40;99.90;;;;;;5062971;28;20028;-71
2023/12/31 08:07:14;;;;;;;23.15;13.90;;;;;;;;;;5061778;28;20028;-72
2023/12/31 08:09:40;;;;;;;14.40;9.05;;;7.10;99.90;;;;;;5062870;28;20017;-73
2023/12/31 08:12:06;;;;;;;14.10;9.32;;;;;;;;;;5062665;28;20088;-72
2023/12/31 08:14:32;;;;;;;12.57;7.38;;;7.40;99.90;;;;;;5062584;28;20075;-72
2023/12/31 08:16:58;;;;;;;12.60;7.22;;;7.80;99.90;;;;;;5062519;28;20029;-72
2023/12/31 08:19:24;;;;;;;9.85;6.25;;;;;;;;;;5044669;28;20119;-72
2023/12/31 08:21:49;;;;;;;10.38;6.85;;;8.10;99.90;;;;;;5062367;28;20029;-72
2023/12/31 08:24:20;;;;;;;10.50;6.50;;;;;;;;;;5062383;28;20016;-72
2023/12/31 08:26:45;;;;;;;15.43;9.52;;;8.60;99.90;;;;;;5062537;28;20035;-71
2023/12/31 08:29:11;;;;;;;10.93;6.90;;;;;;;;;;5062263;28;20040;-71
2023/12/31 08:31:37;;;;;;;10.82;6.85;;;8.70;99.90;;;;;;5061731;28;20209;-72
2023/12/31 08:34:03;;;;;;;11.10;6.32;;;8.80;99.90;;;;;;5062207;28;20045;-70
2023/12/31 08:36:29;;;;;;;8.32;5.80;;;;;;;;;;5062093;28;20029;-69
2023/12/31 08:38:55;;;;;;;8.68;6.00;;;9.30;99.90;;;;;;5061475;28;20028;-71
2023/12/31 08:41:21;;;;;;;8.20;5.40;;;9.40;99.90;;;;;;5061998;28;20024;-72
2023/12/31 08:43:48;;;;;;;9.55;6.65;;;9.50;99.90;;;;;;5044065;28;20212;-70
2023/12/31 08:46:14;;;;;;;7.10;5.18;;;9.20;99.90;;;;;;5061817;28;20032;-70
2023/12/31 08:48:40;;;;;;;20.52;13.15;;;9.60;99.90;;;;;;5061606;28;20132;-69
2023/12/31 08:51:05;;;;;;;8.80;5.68;;;9.60;99.90;;;;;;5061870;28;20021;-68
2023/12/31 08:53:32;;;;;;;20.15;12.73;;;9.70;99.90;;;;;;5077556;28;20012;-69
2023/12/31 08:55:57;;;;;;;9.57;5.57;;;9.90;99.90;;;;;;5081487;28;20060;-69
2023/12/31 08:58:23;;;;;;;12.82;8.50;;;10.00;99.90;;;;;;5081032;28;20108;-71
2023/12/31 09:00:49;;;;;;;8.68;5.93;;;;;;;;;;5072731;28;20063;-71
2023/12/31 09:03:15;;;;;;;6.85;4.45;;;10.10;99.90;;;;;;5053540;28;20350;-73
2023/12/31 09:05:40;;;;;;;12.23;4.95;;;10.10;99.90;;;;;;5071816;28;20088;-72
2023/12/31 09:08:06;;;;;;;6.05;4.63;;;10.20;99.90;;;;;;5069954;28;20032;-72
2023/12/31 09:10:32;;;;;;;6.82;4.65;;;10.60;99.90;;;;;;5081621;28;20089;-73
2023/12/31 09:12:58;;;;;;;8.48;6.30;;;10.60;99.80;;;;;;5081653;28;20074;-74
2023/12/31 09:15:23;;;;;;;14.80;9.25;;;10.60;99.00;;;;;;5081162;28;20271;-73
2023/12/31 09:17:49;;;;;;;19.92;12.32;;;10.70;98.50;;;;;;5080977;28;20358;-73
2023/12/31 09:20:15;;;;;;;20.20;12.75;;;;;;;;;;5080790;28;20033;-73
2023/12/31 09:22:41;;;;;;;19.38;12.82;;;10.40;97.40;;;;;;5069910;28;20027;-73
2023/12/31 09:25:08;;;;;;;16.65;11.55;;;10.50;97.30;;;;;;5080824;28;20035;-73
2023/12/31 09:27:34;;;;;;;16.15;9.98;;;10.40;97.60;;;;;;5080994;28;20048;-72
2023/12/31 09:30:00;;;;;;;14.98;9.30;;;;;;;;;;5081164;28;20028;-73
2023/12/31 09:32:26;;;;;;;9.13;5.85;;;10.30;97.60;;;;;;5081081;28;20212;-73
2023/12/31 09:34:51;;;;;;;8.27;6.00;;;10.50;97.90;;;;;;5081017;28;20012;-73
2023/12/31 09:37:20;;;;;;;8.18;5.25;;;10.90;97.60;;;;;;5080940;28;20315;-72
2023/12/31 09:39:46;;;;;;;10.00;6.60;;;10.40;94.90;;;;;;5081036;28;20083;-72
2023/12/31 09:42:15;;;;;;;12.75;7.85;;;10.40;96.10;;;;;;5079152;28;20036;-72
2023/12/31 09:44:44;;;;;;;14.40;9.95;;;10.50;96.60;;;;;;5071928;28;20524;-72
2023/12/31 09:47:11;;;;;;;22.75;15.52;;;10.40;96.60;;;;;;5042938;28;20079;-73
2023/12/31 09:49:37;;;;;;;16.65;10.82;;;10.40;95.60;;;;;;5074007;28;20106;-72
2023/12/31 09:52:07;;;;;;;15.75;10.95;;;10.20;93.50;;;;;;5080930;28;20059;-72
2023/12/31 09:54:36;;;;;;;21.95;14.80;;;10.20;96.10;;;;;;5080698;28;20023;-72
2023/12/31 09:57:02;;;;;;;12.15;7.93;;;10.00;95.10;;;;;;5080788;28;20090;-72
2023/12/31 09:59:29;;;;;;;28.52;16.02;;;10.30;96.50;;;;;;5080789;28;20119;-72
2023/12/31 10:01:59;;;;;;;19.27;11.98;;;10.20;96.50;;;;;;5080790;28;20055;-72
2023/12/31 10:04:26;;;;;;;16.58;11.30;;;10.10;96.90;;;;;;5079774;28;20021;-72
2023/12/31 10:06:53;;;;;;;16.88;11.48;;;10.30;96.70;;;;;;5071880;28;20091;-72
2023/12/31 10:09:23;;;;;;;18.60;12.10;;;10.10;96.10;;;;;;5080300;28;20346;-71
2023/12/31 10:11:49;;;;;;;16.55;11.35;;;10.20;92.90;;;;;;5080801;28;20048;-74
2023/12/31 10:14:16;;;;;;;19.75;13.38;;;10.10;95.50;;;;;;5080656;28;20044;-72
2023/12/31 10:16:43;;;;;;;19.33;11.82;;;10.00;95.30;;;;;;5062783;28;20024;-71
2023/12/31 10:19:13;;;;;;;20.02;12.75;;;10.30;92.90;;;;;;5080655;28;20086;-71
2023/12/31 10:21:41;;;;;;;22.83;13.55;;;10.10;94.60;;;;;;5080612;28;20029;-72
2023/12/31 10:24:07;;;;;;;19.80;13.57;;;9.90;94.50;;;;;;5080598;28;20039;-72
2023/12/31 10:26:34;;;;;;;20.88;14.27;;;10.10;94.80;;;;;;5080759;28;20048;-72
2023/12/31 10:29:00;;;;;;;21.42;14.93;;;10.20;95.40;;;;;;5080620;28;20029;-72
2023/12/31 10:31:26;;;;;;;23.08;15.20;;;9.50;95.50;;;;;;5080432;28;20017;-72
2023/12/31 10:33:52;;;;;;;24.60;15.50;;;9.80;95.30;;;;;;5080427;28;20021;-72
2023/12/31 10:36:24;;;;;;;26.17;16.48;;;9.70;95.80;;;;;;5080651;28;20046;-72
2023/12/31 10:38:51;;;;;;;25.80;16.77;;;9.40;95.60;;;;;;5075033;28;20044;-73
2023/12/31 10:41:22;;;;;;;29.75;18.35;;;9.70;94.50;;;;;;5052268;28;20415;-71
2023/12/31 10:43:49;;;;;;;33.17;18.33;;;9.40;96.10;;;;;;5047846;28;20044;-72
2023/12/31 10:46:16;;;;;;;31.77;19.75;;;9.50;96.40;;;;;;5068787;28;20028;-72
2023/12/31 10:49:01;;;;;;;30.58;19.33;;;9.50;96.60;;;;;;5062477;28;20072;-73
2023/12/31 10:51:27;;;;;;;31.65;18.50;;;9.30;96.30;;;;;;5051835;28;20028;-74
2023/12/31 10:53:58;;;;;;;27.42;17.05;;;9.20;95.90;;;;;;5045055;28;20032;-76
2023/12/31 10:56:25;;;;;;;30.60;18.83;;;9.60;95.80;;;;;;5068085;28;20025;-74
2023/12/31 10:58:54;;;;;;;28.10;18.15;;;9.60;95.80;;;;;;5065973;28;20103;-75
2023/12/31 11:01:24;;;;;;;31.75;20.25;;;9.60;95.70;;;;;;5072131;28;20041;-74
2023/12/31 11:03:52;;;;;;;31.63;19.95;;;9.80;95.20;;;;;;5074067;28;20017;-76
2023/12/31 11:06:19;;;;;;;34.05;20.42;;;9.90;95.10;;;;;;5071488;28;20029;-74
2023/12/31 11:08:46;;;;;;;31.75;19.17;;;9.90;94.80;;;;;;5080383;28;20021;-76
2023/12/31 11:11:16;;;;;;;32.55;21.02;;;9.60;94.60;;;;;;5062343;28;20584;-77
2023/12/31 11:13:52;;;;;;;31.23;20.17;;;9.70;94.90;;;;;;5080094;28;20013;-74
2023/12/31 11:16:40;;;;;;;30.35;19.80;;;9.90;95.40;;;;;;5080187;28;20130;-73
2023/12/31 11:19:32;;;;;;;29.52;19.98;;;9.40;95.80;;;;;;5080003;28;20044;-73
2023/12/31 11:22:38;;;;;;;34.15;20.92;;;9.20;93.20;;;;;;5083723;28;20051;-74
2023/12/31 11:25:06;;;;;;;34.45;20.63;;;9.10;96.40;;;;;;4966544;28;20107;-76
2023/12/31 11:27:32;;;;;;;37.53;21.63;;;9.10;96.60;;;;;;4997817;28;20334;-75
2023/12/31 11:29:58;;;;;;;34.05;22.08;;;9.20;94.30;;;;;;5036146;28;20039;-71
2023/12/31 11:32:25;;;;;;;42.35;23.58;;;8.90;97.10;;;;;;5103727;28;20097;-69
2023/12/31 11:34:52;;;;;;;38.00;22.90;;;8.70;94.50;;;;;;5103466;28;20031;-70
2023/12/31 11:37:17;;;;;;;37.55;23.00;;;8.70;97.70;;;;;;5102259;28;20030;-70
2023/12/31 11:39:47;;;;;;;31.77;20.17;;;8.70;94.80;;;;;;5102151;28;20051;-69
2023/12/31 11:42:13;;;;;;;34.78;21.27;;;;;;;;;;5102991;28;20217;-69
2023/12/31 11:44:43;;;;;;;37.08;23.92;;;8.80;95.10;;;;;;5103223;28;20024;-69
2023/12/31 11:47:20;;;;;;;37.22;23.85;;;8.80;95.00;;;;;;5098215;28;20328;-69
2023/12/31 11:49:49;;;;;;;38.95;22.88;;;8.80;98.00;;;;;;5082961;28;20083;-69
2023/12/31 11:52:15;;;;;;;40.15;24.02;;;8.80;98.20;;;;;;5067189;28;20035;-69
2023/12/31 11:54:43;;;;;;;39.88;24.13;;;8.40;98.30;;;;;;5063132;28;20044;-69
2023/12/31 11:57:10;;;;;;;39.65;24.05;;;;;;;;;;5077219;28;20324;-69
2023/12/31 11:59:42;;;;;;;38.20;23.58;;;8.50;98.60;;;;;;5081730;28;20316;-69
2023/12/31 12:02:08;;;;;;;39.53;25.13;;;8.30;98.70;;;;;;5062569;28;20051;-69
2023/12/31 12:04:38;;;;;;;40.00;24.30;;;8.40;96.10;;;;;;5062773;28;20092;-69
2023/12/31 12:07:04;;;;;;;42.30;24.33;;;8.30;99.30;;;;;;5062757;28;20076;-69
2023/12/31 12:09:32;;;;;;;36.83;21.75;;;8.20;99.60;;;;;;5044911;28;20020;-69
2023/12/31 12:12:05;;;;;;;42.23;24.50;;;8.10;99.60;;;;;;5062895;28;20025;-70
2023/12/31 12:14:31;;;;;;;43.40;24.00;;;;;;;;;;5080853;28;20273;-70
2023/12/31 12:16:58;;;;;;;38.50;23.15;;;;;;;;;;5081635;28;20028;-69
2023/12/31 12:19:25;;;;;;;42.83;26.13;;;7.90;99.90;;;;;;5069384;28;20013;-69
2023/12/31 12:21:51;;;;;;;36.53;22.42;;;8.40;99.90;;;;;;5046990;28;20036;-66
2023/12/31 12:24:17;;;;;;;35.20;22.17;;;8.20;99.90;;;;;;5072330;28;20280;-67
2023/12/31 12:26:48;;;;;;;39.50;24.60;;;8.30;99.90;;;;;;5070767;28;20037;-68
2023/12/31 12:29:17;;;;;;;42.90;24.95;;;8.30;99.90;;;;;;5068653;28;20099;-68
2023/12/31 12:31:49;;;;;;;42.25;25.05;;;7.90;96.70;;;;;;5062011;28;20029;-69
2023/12/31 12:34:16;;;;;;;42.58;25.30;;;8.40;99.70;;;;;;5083946;28;20304;-70
2023/12/31 12:36:48;;;;;;;42.45;25.63;;;8.80;99.40;;;;;;5082483;28;20023;-71
2023/12/31 12:39:22;;;;;;;42.47;25.63;;;9.10;98.90;;;;;;5066807;28;20043;-70
2023/12/31 12:41:49;;;;;;;43.15;26.63;;;9.30;97.80;;;;;;5083231;28;20067;-69
2023/12/31 12:44:16;;;;;;;43.65;26.35;;;9.90;97.70;;;;;;5082232;28;20027;-70
2023/12/31 12:46:44;;;;;;;39.90;25.23;;;9.80;95.40;;;;;;5082011;28;20071;-70
2023/12/31 12:49:12;;;;;;;37.63;26.13;;;10.50;94.80;;;;;;5067002;28;20047;-70
2023/12/31 12:51:38;;;;;;;39.50;26.63;;;10.40;93.20;;;;;;5081727;28;20029;-69
2023/12/31 12:54:05;;;;;;;42.25;27.55;;;10.10;94.50;;;;;;5080664;28;20399;-69
2023/12/31 12:56:31;;;;;;;41.60;27.80;;;10.20;91.90;;;;;;5072732;28;20024;-69
2023/12/31 12:58:58;;;;;;;37.05;24.80;;;10.80;91.50;;;;;;5061791;28;20024;-69
2023/12/31 13:01:25;;;;;;;35.88;24.88;;;12.80;85.70;;;;;;5074015;28;20439;-70
2023/12/31 13:03:52;;;;;;;34.42;25.10;;;13.10;85.70;;;;;;5081748;28;20538;-70
2023/12/31 13:06:18;;;;;;;32.92;23.75;;;14.20;79.00;;;;;;5081760;28;20009;-70
2023/12/31 13:08:44;;;;;;;30.10;23.52;;;15.40;72.30;;;;;;5081675;28;20035;-71
2023/12/31 13:11:13;;;;;;;29.70;22.88;;;16.70;65.70;;;;;;5081727;28;20012;-70